Date,TemperatureHighF,TemperatureAvgF,TemperatureLowF,DewpointHighF,DewpointAvgF,DewpointLowF,HumidityHigh,HumidityAvg,HumidityLow,PressureMaxIn,PressureMinIn,WindSpeedMaxMPH,WindSpeedAvgMPH,GustSpeedMaxMPH,PrecipitationSumIn
2013-1-1,36.7,32.9,23.9,30.0,24.4,14.0,81,71,58,30.02,29.85,10,3,14,0.03
2013-1-2,32.3,24.6,17.7,18.0,14.5,12.0,81,66,50,30.18,30.00,8,2,15,0.03
2013-1-3,30.8,25.0,19.1,21.0,16.3,14.0,81,70,56,30.20,30.07,11,3,14,0.00
2013-1-4,36.1,31.3,24.8,25.0,21.9,19.0,79,69,59,30.09,29.96,13,5,22,0.02
2013-1-5,41.7,33.2,28.7,24.0,22.0,19.0,81,64,47,30.29,30.03,13,3,21,0.03
2013-1-6,42.9,35.2,28.8,31.0,27.7,23.0,86,74,59,30.20,29.97,10,2,14,0.01
2013-1-7,43.3,35.1,27.6,30.0,26.2,23.0,87,72,49,30.38,30.05,11,2,17,0.01
2013-1-8,45.0,33.9,25.7,32.0,27.1,23.0,90,77,58,30.39,30.34,9,2,11,0.00
2013-1-9,39.7,30.9,22.5,36.0,26.0,-99.9,94,87,80,30.38,30.15,4,-20,12,0.01
2013-1-10,48.2,39.6,33.0,32.0,27.2,26.0,83,62,43,30.53,30.26,7,2,18,0.00
2013-1-11,42.6,36.0,30.2,39.0,32.4,26.0,96,87,77,30.52,30.09,5,0,8,0.36
2013-1-12,43.3,40.1,36.8,42.0,39.2,36.0,97,96,95,30.16,30.08,5,0,7,0.36
2013-1-13,46.5,43.9,40.5,46.0,43.4,40.0,98,98,97,30.13,29.97,3,0,8,0.01
2013-1-14,54.1,46.7,37.2,51.0,41.2,30.0,98,83,55,30.28,29.87,10,2,14,0.05
2013-1-15,36.3,34.3,32.1,32.0,28.4,26.0,93,79,68,30.34,30.20,6,1,8,0.02
2013-1-16,33.5,31.3,29.9,32.0,29.9,28.0,96,94,89,30.20,29.84,6,1,11,0.01
2013-1-17,41.2,35.9,32.4,33.0,29.3,25.0,95,77,62,30.08,29.92,11,2,13,0.38
2013-1-18,32.2,26.9,22.7,25.0,13.2,7.0,79,57,39,30.45,30.00,11,3,19,0.38
2013-1-19,46.1,36.5,24.3,29.0,23.1,11.0,72,59,47,30.37,29.89,12,4,16,0.16
2013-1-20,50.3,38.0,26.5,32.0,22.7,11.0,80,57,27,30.04,29.70,22,4,30,0.16
2013-1-21,27.7,24.3,20.2,20.0,13.5,9.0,84,64,49,30.07,29.85,8,2,15,0.00
2013-1-22,22.1,16.0,9.8,13.0,0.8,-6.0,67,52,40,30.21,29.85,20,6,26,0.00
2013-1-23,17.5,11.1,7.0,4.0,-0.7,-5.0,83,60,39,30.26,30.17,13,4,17,0.00
2013-1-24,21.5,13.0,5.0,7.0,2.4,-2.0,88,65,39,30.44,30.14,13,3,23,0.00
2013-1-25,20.4,14.1,8.4,14.0,5.4,-2.0,89,69,50,30.45,30.06,6,2,14,0.00
2013-1-26,26.5,17.2,7.7,12.0,8.2,5.0,89,69,46,30.39,30.06,10,2,23,0.00
2013-1-27,34.5,21.9,11.0,15.0,11.0,7.0,86,65,38,30.55,30.39,8,1,14,0.00
2013-1-28,32.9,27.8,19.0,32.0,24.8,13.0,95,88,75,30.49,30.00,6,1,14,0.00
2013-1-29,49.7,40.8,33.0,44.0,38.3,32.0,96,91,80,30.13,30.01,7,1,9,0.08
2013-1-30,63.6,51.1,42.9,59.0,49.9,42.0,98,95,85,30.03,29.29,10,2,21,0.57
2013-1-31,56.1,40.3,25.9,56.0,29.3,11.0,98,67,43,29.77,29.01,22,9,31,0.01
2013-2-1,29.6,24.2,19.1,20.0,13.5,5.0,87,65,36,30.23,29.77,15,5,20,0.01
2013-2-2,22.9,18.9,13.6,20.0,11.4,6.0,92,73,56,30.29,30.03,12,3,16,0.00
2013-2-3,27.8,21.1,15.3,22.0,17.7,13.0,92,87,75,30.03,29.80,6,1,12,0.05
2013-2-4,28.6,23.5,17.9,20.0,12.7,10.0,84,64,47,29.99,29.83,10,4,23,0.05
2013-2-5,30.3,26.8,23.9,26.0,22.8,17.0,93,85,75,29.96,29.88,3,0,7,0.01
2013-2-6,36.9,30.2,24.6,28.0,21.3,11.0,94,72,45,30.34,29.91,9,2,16,0.04
2013-2-7,32.1,25.5,16.8,20.0,13.8,10.0,81,62,49,30.48,30.30,8,1,10,0.04
2013-2-8,33.6,31.1,28.7,31.0,27.6,19.0,94,87,68,30.29,29.69,8,2,15,0.07
2013-2-9,32.5,25.8,18.6,29.0,16.5,7.0,95,70,43,30.36,29.76,14,3,25,0.03
2013-2-10,37.5,24.8,9.1,17.0,12.4,6.0,88,61,41,30.47,30.29,6,1,9,0.04
2013-2-11,38.6,34.5,30.0,38.0,31.8,18.0,96,90,59,30.29,29.66,4,1,7,0.31
2013-2-12,41.8,37.1,30.0,36.0,26.6,23.0,97,67,56,29.97,29.74,15,5,23,0.32
2013-2-13,43.9,33.6,22.4,31.0,25.8,20.0,93,74,51,29.95,29.68,5,1,8,0.02
2013-2-14,43.4,34.7,28.5,33.0,28.6,25.0,96,80,57,29.98,29.70,9,2,13,0.02
2013-2-15,52.9,40.1,30.6,35.0,29.7,26.0,90,68,45,29.99,29.91,15,3,22,0.07
2013-2-16,33.6,31.1,26.5,31.0,23.5,11.0,94,74,50,29.97,29.77,9,2,17,0.11
2013-2-17,29.1,23.4,16.0,11.0,6.1,1.0,59,48,38,30.05,29.73,15,6,34,0.11
2013-2-18,35.3,24.0,13.6,14.0,7.5,1.0,63,50,34,30.28,30.06,8,3,22,0.00
2013-2-19,40.0,32.4,26.1,36.0,25.3,13.0,95,76,51,30.17,29.69,11,2,22,0.30
2013-2-20,33.4,27.1,22.5,25.0,14.7,9.0,73,60,50,30.00,29.74,16,7,25,0.30
2013-2-21,33.4,25.5,20.6,17.0,13.4,11.0,72,61,49,30.31,29.99,10,5,27,0.00
2013-2-22,36.5,27.7,18.4,28.0,19.9,13.0,84,73,58,30.40,30.23,8,1,12,0.00
2013-2-23,41.1,37.1,32.6,40.0,35.5,29.0,96,94,85,30.24,29.81,4,1,9,0.12
2013-2-24,43.6,35.5,30.5,40.0,29.5,22.0,97,80,63,29.99,29.77,11,3,17,0.12
2013-2-25,41.4,34.0,26.4,30.0,25.9,22.0,90,73,58,30.23,30.00,8,1,12,0.00
2013-2-26,42.1,33.1,23.4,32.0,28.0,22.0,95,82,63,30.26,29.84,14,3,21,0.11
2013-2-27,45.7,41.2,34.3,43.0,37.9,32.0,94,88,78,29.82,29.50,17,4,23,0.08
2013-2-28,44.6,38.8,31.2,36.0,32.4,28.0,93,79,55,29.62,29.55,10,2,12,0.08
2013-3-1,41.5,35.8,30.8,31.0,28.2,24.0,94,75,61,29.80,29.61,9,3,16,0.00
2013-3-2,36.2,31.5,28.0,24.0,22.3,19.0,76,69,59,29.80,29.73,10,3,14,0.00
2013-3-3,35.2,29.4,26.0,20.0,18.3,16.0,72,64,52,29.80,29.70,18,4,18,0.00
2013-3-4,40.6,31.9,26.3,21.0,19.0,16.0,71,60,44,29.94,29.80,13,5,20,0.00
2013-3-5,47.1,36.8,29.8,27.0,23.8,21.0,72,60,44,30.02,29.94,12,3,21,0.00
2013-3-6,39.0,37.2,34.7,35.0,29.8,25.0,90,75,66,29.97,29.84,15,5,37,0.05
2013-3-7,43.4,36.9,31.0,32.0,27.3,25.0,91,69,51,30.10,29.96,11,3,21,0.05
2013-3-8,43.4,34.1,28.3,31.0,27.9,24.0,93,79,61,30.24,30.04,11,3,19,0.23
2013-3-9,59.3,42.1,29.2,27.0,22.8,16.0,76,51,19,30.31,30.22,8,2,12,0.23
2013-3-10,56.5,41.0,26.4,35.0,29.0,24.0,90,66,32,30.36,30.24,8,2,15,0.00
2013-3-11,55.0,44.2,35.8,47.0,39.1,32.0,96,83,57,30.30,30.02,9,2,16,0.00
2013-3-12,56.2,50.3,40.6,55.0,47.2,36.0,97,89,79,30.01,29.65,9,3,17,1.18
2013-3-13,47.1,39.9,33.0,37.0,29.2,22.0,88,67,40,29.90,29.80,13,4,18,1.19
2013-3-14,40.3,32.8,27.6,21.0,13.2,7.0,63,46,27,29.97,29.86,18,6,25,0.00
2013-3-15,44.5,35.4,24.9,31.0,21.3,11.0,67,57,45,29.99,29.71,15,5,28,0.00
2013-3-16,40.9,32.6,29.6,30.0,26.2,21.0,92,78,62,29.91,29.76,6,1,11,0.07
2013-3-17,35.3,30.9,25.7,29.0,20.1,15.0,93,66,49,30.30,29.91,10,2,14,0.02
2013-3-18,33.5,28.2,22.4,30.0,19.6,11.0,95,71,51,30.37,29.95,9,2,17,0.02
2013-3-19,46.7,36.8,31.6,37.0,31.0,18.0,95,81,45,29.94,29.68,13,2,25,0.42
2013-3-20,43.6,35.5,28.5,24.0,20.1,17.0,71,55,36,29.88,29.77,19,5,23,0.42
2013-3-21,37.7,31.0,25.1,26.0,15.9,11.0,74,55,35,29.83,29.64,8,3,18,0.00
2013-3-22,40.0,31.8,23.1,23.0,18.5,11.0,76,59,42,29.89,29.74,9,4,19,0.00
2013-3-23,44.2,36.3,29.8,22.0,20.4,18.0,68,54,37,29.94,29.85,15,5,22,0.00
2013-3-24,46.4,37.1,26.6,25.0,20.8,18.0,72,53,37,29.95,29.68,8,2,15,0.00
2013-3-25,38.7,35.7,33.1,34.0,29.2,24.0,93,78,58,29.68,29.47,7,1,11,0.10
2013-3-26,52.0,39.2,33.3,33.0,29.9,24.0,94,73,36,29.88,29.61,13,2,21,0.10
2013-3-27,51.0,39.3,29.3,33.0,27.8,22.0,85,66,32,30.00,29.88,14,2,21,0.00
2013-3-28,46.5,39.0,30.3,32.0,28.8,27.0,90,69,49,30.13,29.98,10,2,16,0.00
2013-3-29,51.7,43.5,33.9,32.0,29.0,27.0,76,58,39,30.15,30.08,7,2,19,0.00
2013-3-30,58.9,43.6,30.8,32.0,26.0,17.0,90,56,20,30.17,30.05,13,2,15,0.00
2013-3-31,57.2,41.8,28.8,42.0,31.9,-99.9,95,73,41,30.10,29.68,11,-9,22,0.11
2013-4-1,57.5,45.3,33.2,46.0,33.5,11.0,96,68,31,29.92,29.63,18,5,25,0.01
2013-4-2,43.0,33.6,24.4,20.0,13.9,11.0,67,47,28,30.09,29.92,17,4,27,0.01
2013-4-3,45.0,35.2,24.5,17.0,12.6,8.0,65,41,25,30.32,30.09,18,4,21,0.00
2013-4-4,53.7,40.1,25.3,24.0,19.0,13.0,69,44,28,30.39,30.07,10,3,16,0.00
2013-4-5,62.4,46.4,35.0,29.0,24.1,18.0,72,46,20,30.05,29.74,16,3,22,0.00
2013-4-6,53.4,41.4,31.0,21.0,15.2,8.0,58,37,17,30.29,30.02,11,3,16,0.00
2013-4-7,62.5,51.7,36.7,42.0,34.1,21.0,71,52,39,30.27,29.96,10,4,20,0.00
2013-4-8,76.6,61.7,42.4,50.0,43.4,39.0,89,55,26,30.06,29.92,8,2,13,0.00
2013-4-9,82.5,70.5,58.5,53.0,45.1,35.0,73,44,19,29.95,29.85,12,3,22,0.00
2013-4-10,82.9,67.8,55.3,59.0,53.8,46.0,97,64,41,29.91,29.75,14,3,28,0.53
2013-4-11,59.6,54.6,46.4,59.0,50.0,41.0,97,85,61,29.98,29.74,10,3,16,0.54
2013-4-12,46.5,42.6,39.9,43.0,39.8,38.0,94,90,75,29.95,29.70,11,4,19,0.55
2013-4-13,58.0,47.3,36.7,43.0,36.2,33.0,97,69,43,29.95,29.75,16,2,19,0.56
2013-4-14,58.6,49.5,41.8,38.0,32.2,27.0,81,54,32,30.17,29.94,11,2,17,0.00
2013-4-15,65.9,50.8,41.5,41.0,33.3,28.0,66,52,39,30.32,30.18,9,2,14,0.00
2013-4-16,68.5,57.3,46.9,57.0,48.3,36.0,84,72,63,30.32,30.07,14,3,19,0.00
2013-4-17,73.3,60.4,51.4,56.0,40.4,31.0,91,53,22,30.25,30.09,10,2,17,0.02
2013-4-18,56.5,51.6,44.0,53.0,44.6,36.0,94,78,56,30.28,30.04,11,2,16,0.03
2013-4-19,75.9,64.6,52.1,65.0,59.5,49.0,95,84,67,30.04,29.55,27,5,27,0.71
2013-4-20,57.4,49.3,41.5,47.0,33.8,21.0,94,59,33,30.30,29.68,12,5,24,0.76
2013-4-21,54.4,43.4,32.3,28.0,22.3,18.0,63,45,27,30.59,30.31,13,2,15,0.00
2013-4-22,55.7,43.8,31.4,35.0,30.8,25.0,91,62,40,30.62,30.46,15,3,22,0.00
2013-4-23,48.9,43.6,37.8,40.0,35.7,31.0,89,74,64,30.45,30.13,10,2,14,0.00
2013-4-24,73.1,54.5,34.5,56.0,45.8,33.0,96,75,49,30.12,29.76,11,3,14,0.00
2013-4-25,64.7,53.0,41.7,51.0,30.5,22.0,80,46,21,30.24,29.87,19,4,27,0.02
2013-4-26,66.2,52.3,38.5,36.0,29.9,21.0,81,47,20,30.40,30.24,10,2,13,0.00
2013-4-27,70.2,54.6,35.3,37.0,32.8,29.0,86,48,24,30.42,30.24,6,1,12,0.00
2013-4-28,72.1,57.7,40.1,43.0,37.6,31.0,88,51,30,30.28,30.14,12,2,17,0.00
2013-4-29,54.5,51.9,51.0,50.0,47.5,36.0,94,85,51,30.20,30.12,12,3,18,0.07
2013-4-30,68.1,56.5,47.8,50.0,40.4,16.0,94,61,18,30.30,30.16,10,2,16,0.07
2013-5-1,74.9,53.7,35.3,43.0,33.3,22.0,84,52,16,30.45,30.31,9,2,16,0.00
2013-5-2,79.4,57.4,37.9,46.0,41.5,36.0,95,61,27,30.44,30.29,8,1,12,0.00
2013-5-3,68.8,58.0,47.5,43.0,37.4,29.0,78,49,24,30.41,30.29,11,3,15,0.00
2013-5-4,76.9,55.4,38.1,46.0,40.6,37.0,95,63,28,30.34,30.16,10,2,14,0.00
2013-5-5,71.9,52.3,36.6,44.0,39.1,34.0,96,66,28,30.26,30.15,9,1,14,0.00
2013-5-6,74.4,55.3,38.2,53.0,46.4,36.0,94,74,47,30.23,30.10,7,1,14,0.00
2013-5-7,74.8,60.5,44.3,58.0,51.5,43.0,97,75,49,30.14,30.03,10,2,16,0.00
2013-5-8,69.7,61.0,56.3,63.0,58.1,55.0,97,90,68,30.05,29.89,7,2,14,1.56
2013-5-9,68.1,58.9,53.3,59.0,55.1,53.0,98,88,66,29.95,29.86,6,1,9,0.02
2013-5-10,80.1,64.2,48.8,61.0,55.3,48.0,98,76,42,29.99,29.86,12,1,17,0.04
2013-5-11,70.7,64.1,58.0,65.0,61.1,57.0,96,90,76,29.88,29.66,9,2,14,0.19
2013-5-12,64.3,56.5,45.1,56.0,40.8,28.0,96,60,28,29.92,29.65,20,4,27,0.19
2013-5-13,53.2,45.2,36.0,34.0,30.3,26.0,87,58,37,30.11,29.93,10,3,21,0.00
2013-5-14,60.9,46.4,30.9,38.0,28.5,20.0,96,58,22,30.14,30.00,9,2,15,0.00
2013-5-15,73.7,57.2,40.6,59.0,47.2,34.0,86,70,56,30.05,29.65,7,2,17,0.00
2013-5-16,83.5,67.1,52.2,60.0,52.6,41.0,97,65,30,29.83,29.69,11,1,13,0.01
2013-5-17,73.6,61.8,51.4,46.0,41.9,38.0,78,50,30,30.17,29.83,8,2,15,0.01
2013-5-18,63.8,55.2,47.2,56.0,50.3,44.0,92,84,57,30.27,30.18,5,1,9,0.04
2013-5-19,61.0,57.1,54.6,58.0,55.1,53.0,96,93,86,30.27,30.14,6,2,13,0.01
2013-5-20,81.0,67.0,56.4,68.0,61.4,55.0,97,84,59,30.15,29.93,6,1,12,0.01
2013-5-21,88.7,73.6,61.5,73.0,66.9,61.0,98,81,55,29.95,29.79,10,2,15,0.01
2013-5-22,87.3,75.1,65.7,73.0,68.5,65.0,98,81,58,29.87,29.75,9,1,15,0.01
2013-5-23,77.1,68.1,63.3,71.0,65.5,61.0,97,91,75,29.84,29.70,11,1,15,0.69
2013-5-24,62.7,51.8,42.5,61.0,49.0,39.0,98,90,77,29.99,29.66,8,2,18,0.27
2013-5-25,57.1,49.5,42.3,41.0,38.6,34.0,93,68,46,30.02,29.94,17,4,27,0.42
2013-5-26,68.0,55.2,43.8,41.0,36.6,31.0,80,53,29,30.20,29.99,17,4,29,0.00
2013-5-27,76.2,56.4,36.3,46.0,40.5,35.0,96,62,24,30.25,30.11,7,2,14,0.00
2013-5-28,56.8,53.6,46.1,56.0,51.4,44.0,97,92,79,30.20,30.10,4,0,6,0.33
2013-5-29,85.1,69.4,56.4,70.0,62.6,56.0,99,82,57,30.11,29.97,7,1,14,0.33
2013-5-30,92.8,77.9,66.0,71.0,65.6,62.0,95,70,38,30.11,30.02,7,1,12,0.00
2013-5-31,92.2,78.3,63.9,73.0,65.0,54.0,98,68,38,30.09,29.95,8,1,11,0.00
2013-6-1,91.2,78.4,65.1,72.0,67.7,63.0,97,72,50,29.98,29.84,6,2,15,0.00
2013-6-2,86.6,76.6,70.0,72.0,68.7,66.0,97,77,55,29.86,29.73,8,2,16,0.43
2013-6-3,81.8,70.8,62.7,69.0,63.8,49.0,96,80,57,29.88,29.76,6,1,10,0.07
2013-6-4,76.3,63.4,51.8,50.0,45.2,41.0,77,54,31,30.10,29.89,9,2,15,0.07
2013-6-5,78.4,62.2,44.6,54.0,47.7,42.0,93,62,36,30.19,30.06,6,1,10,0.00
2013-6-6,68.6,59.8,50.0,59.0,54.2,48.0,96,83,60,30.11,29.95,6,1,11,0.28
2013-6-7,62.3,60.0,58.2,62.0,59.2,57.0,98,97,95,29.94,29.62,8,2,14,1.38
2013-6-8,76.8,65.7,57.1,65.0,61.1,56.0,99,86,62,30.04,29.62,8,1,13,1.59
2013-6-9,82.7,67.8,54.2,64.0,59.5,53.0,99,78,49,30.15,30.04,5,1,12,0.01
2013-6-10,68.6,63.9,61.4,68.0,62.8,60.0,99,96,92,30.12,29.75,8,2,13,1.22
2013-6-11,77.8,70.7,66.2,69.0,65.9,61.0,99,86,67,29.75,29.62,12,2,17,1.25
2013-6-12,80.4,69.3,59.1,61.0,57.4,54.0,91,68,42,29.81,29.70,11,2,15,0.00
2013-6-13,65.1,59.7,55.0,62.0,57.9,54.0,97,94,88,29.81,29.42,9,2,15,0.95
2013-6-14,76.3,61.0,52.5,61.0,54.9,50.0,96,82,53,29.90,29.54,9,1,16,1.04
2013-6-15,81.8,66.2,51.6,62.0,56.4,51.0,99,75,39,30.01,29.90,4,1,11,0.01
2013-6-16,78.4,67.0,53.9,66.0,59.8,53.0,98,80,53,29.98,29.76,10,1,18,0.00
2013-6-17,86.7,72.0,61.1,72.0,63.7,59.0,98,78,39,29.89,29.79,8,1,11,0.01
2013-6-18,85.0,67.8,59.3,71.0,63.0,57.0,98,86,56,29.88,29.76,5,0,11,0.52
2013-6-19,78.7,65.0,54.4,58.0,53.3,48.0,96,70,37,30.13,29.87,8,1,11,0.52
2013-6-20,82.4,66.5,49.3,61.0,55.8,48.0,98,72,40,30.24,30.14,6,1,11,0.00
2013-6-21,84.1,69.8,55.9,63.0,57.4,52.0,89,67,45,30.27,30.18,7,1,10,0.00
2013-6-22,85.4,71.4,54.6,69.0,61.9,52.0,94,73,53,30.22,30.07,8,1,12,0.00
2013-6-23,89.7,76.1,63.0,73.0,68.0,62.0,97,78,53,30.16,30.00,9,1,12,0.00
2013-6-24,95.3,77.4,67.3,75.0,69.7,66.0,97,80,43,30.04,29.92,7,1,12,0.01
2013-6-25,88.9,75.1,64.9,76.0,69.7,64.0,98,84,60,29.98,29.78,14,1,14,0.34
2013-6-26,86.2,73.8,65.5,72.0,68.3,64.0,97,84,60,29.83,29.76,8,1,11,0.34
2013-6-27,89.6,74.6,64.0,72.0,68.6,64.0,99,84,54,29.79,29.48,8,1,14,1.04
2013-6-28,86.3,76.0,68.6,71.0,68.9,65.0,96,80,58,29.50,29.41,11,2,18,1.04
2013-6-29,85.1,73.2,63.3,70.0,65.5,62.0,98,79,53,29.66,29.44,6,1,11,0.00
2013-6-30,86.6,73.7,64.1,75.0,68.9,63.0,97,86,68,29.86,29.66,7,1,13,0.00
2013-7-1,77.9,72.9,69.0,74.0,71.1,68.0,99,94,83,29.98,29.83,6,1,16,0.67
2013-7-2,84.8,77.1,72.9,75.0,72.6,70.0,96,86,71,30.13,29.98,5,2,11,0.68
2013-7-3,83.9,76.3,71.7,76.0,72.1,69.0,97,87,73,30.20,30.11,6,1,10,0.01
2013-7-4,88.1,79.0,70.9,76.0,73.0,70.0,99,83,65,30.21,30.10,8,2,15,0.01
2013-7-5,92.4,81.4,70.6,76.0,73.2,70.0,98,77,55,30.17,30.04,7,2,13,0.01
2013-7-6,94.1,80.7,71.1,77.0,73.4,70.0,97,80,56,30.11,29.98,6,1,12,0.00
2013-7-7,93.7,80.6,70.1,78.0,73.2,66.0,98,80,55,30.03,29.89,7,1,14,0.04
2013-7-8,88.2,75.4,66.8,74.0,69.0,66.0,97,82,53,30.01,29.93,6,1,10,0.05
2013-7-9,87.8,74.5,65.2,75.0,69.5,64.0,98,85,63,30.04,29.95,5,1,19,0.16
2013-7-10,85.6,77.1,69.7,76.0,72.6,69.0,99,87,66,29.98,29.78,10,2,18,0.16
2013-7-11,86.2,76.4,68.3,74.0,69.1,62.0,95,79,57,29.90,29.77,3,0,8,0.00
2013-7-12,79.1,70.9,65.4,71.0,65.6,60.0,96,83,71,30.04,29.90,6,1,12,0.10
2013-7-13,82.5,72.2,65.9,75.0,69.6,65.0,97,91,77,30.25,30.04,6,1,12,0.01
2013-7-14,92.6,80.2,72.9,77.0,73.4,70.0,98,82,55,30.31,30.20,7,1,13,0.01
2013-7-15,97.1,80.9,70.4,78.0,73.2,69.0,98,80,50,30.22,30.10,4,0,6,0.00
2013-7-16,93.1,79.4,67.9,74.0,70.5,67.0,98,77,47,30.20,30.09,5,1,10,0.00
2013-7-17,99.3,80.9,67.1,76.0,70.7,67.0,99,75,37,30.17,30.02,5,0,7,0.00
2013-7-18,100.0,84.0,72.8,79.0,73.6,70.0,94,74,40,30.04,29.93,4,1,12,0.00
2013-7-19,97.1,83.7,71.7,79.0,74.7,71.0,97,76,51,29.93,29.75,12,2,17,0.00
2013-7-20,92.0,80.6,73.2,77.0,72.3,69.0,90,77,52,29.80,29.70,8,2,17,0.00
2013-7-21,91.5,78.5,69.5,72.0,69.5,65.0,98,76,50,29.92,29.80,4,0,7,0.01
2013-7-22,88.4,74.2,67.4,75.0,70.2,66.0,98,88,64,29.92,29.75,6,1,11,1.28
2013-7-23,85.5,75.7,69.3,76.0,72.2,68.0,99,89,68,29.75,29.53,6,1,10,0.11
2013-7-24,81.5,70.7,60.6,69.0,62.9,52.0,98,78,54,29.93,29.60,7,1,14,0.01
2013-7-25,71.7,62.8,55.8,61.0,55.4,50.0,90,77,68,30.03,29.92,7,1,11,0.01
2013-7-26,87.2,68.7,56.9,64.0,59.8,56.0,98,77,42,30.03,29.96,5,1,8,0.00
2013-7-27,85.8,70.8,56.6,69.0,63.0,56.0,99,78,54,30.01,29.89,7,1,12,0.00
2013-7-28,78.5,69.2,65.0,72.0,66.7,62.0,98,91,78,29.95,29.86,5,1,12,0.88
2013-7-29,84.7,69.6,58.4,67.0,61.5,56.0,99,79,40,30.09,29.92,5,1,14,0.89
2013-7-30,80.5,66.2,54.1,66.0,58.6,53.0,98,79,49,30.16,30.08,4,0,10,0.01
2013-7-31,84.7,69.5,55.0,65.0,60.9,54.0,99,77,47,30.14,30.00,5,1,7,0.01
2013-8-1,68.0,66.1,63.4,67.0,65.0,62.0,98,96,91,30.00,29.80,4,1,13,0.31
2013-8-2,84.3,70.9,61.3,68.0,64.2,60.0,99,81,51,29.89,29.79,10,1,13,0.32
2013-8-3,77.8,67.2,61.2,69.0,63.6,59.0,97,88,71,29.89,29.82,7,1,14,0.19
2013-8-4,82.2,67.1,56.9,62.0,58.6,53.0,99,77,44,29.97,29.85,11,1,15,0.20
2013-8-5,81.3,63.6,51.7,60.0,53.6,49.0,97,74,38,30.05,29.96,7,1,10,0.00
2013-8-6,83.4,66.1,51.7,63.0,57.8,51.0,98,78,43,30.09,30.02,9,1,11,0.00
2013-8-7,76.1,69.2,64.1,69.0,65.6,61.0,95,88,74,30.09,30.00,9,1,11,0.04
2013-8-8,84.0,73.4,68.1,76.0,71.1,67.0,98,92,74,30.01,29.93,6,1,12,0.24
2013-8-9,87.9,75.3,71.0,77.0,72.9,70.0,98,92,69,29.95,29.76,7,2,17,0.34
2013-8-10,84.6,71.9,61.9,70.0,66.3,61.0,99,84,55,30.03,29.85,4,0,10,0.35
2013-8-11,83.4,67.3,55.4,68.0,60.6,55.0,98,81,47,30.11,29.99,5,1,10,0.01
2013-8-12,85.0,71.2,64.4,69.0,64.9,63.0,98,83,52,30.01,29.89,3,0,6,0.13
2013-8-13,82.2,70.9,64.0,71.0,67.4,63.0,99,89,68,29.89,29.65,4,1,8,0.95
2013-8-14,72.4,61.6,51.3,64.0,54.0,50.0,97,78,53,30.04,29.76,10,2,19,0.96
2013-8-15,78.9,61.0,48.2,58.0,52.9,47.0,98,79,35,30.14,30.05,6,1,8,0.00
2013-8-16,84.9,64.6,49.7,63.0,55.3,49.0,99,77,38,30.18,30.11,3,1,6,0.01
2013-8-17,84.9,65.8,52.7,66.0,59.1,52.0,98,82,46,30.25,30.18,4,0,7,0.01
2013-8-18,72.9,65.2,58.8,67.0,62.5,58.0,98,91,79,30.23,30.11,2,0,4,0.01
2013-8-19,76.9,67.0,58.7,67.0,62.3,58.0,99,86,62,30.11,30.01,5,1,8,0.02
2013-8-20,90.7,71.9,60.5,71.0,65.3,60.0,99,82,47,30.11,30.04,4,0,9,0.00
2013-8-21,90.5,71.7,58.4,71.0,64.4,58.0,99,81,46,30.16,30.02,5,1,9,0.01
2013-8-22,83.2,71.2,66.3,75.0,69.0,66.0,99,93,74,30.04,29.85,7,1,10,0.04
2013-8-23,80.0,70.0,60.2,67.0,62.3,57.0,98,79,48,30.09,29.87,3,0,10,0.01
2013-8-24,83.2,64.6,53.7,59.0,55.0,52.0,97,75,41,30.32,30.09,6,1,10,0.01
2013-8-25,85.3,64.1,48.8,64.0,55.5,48.0,99,77,42,30.39,30.21,7,1,9,0.01
2013-8-26,81.9,69.4,61.3,71.0,63.5,57.0,97,82,68,30.21,29.89,6,1,10,0.08
2013-8-27,89.1,75.2,67.6,73.0,68.7,67.0,98,82,51,29.89,29.82,6,1,10,0.09
2013-8-28,73.6,69.3,65.1,72.0,68.5,65.0,99,97,94,29.87,29.81,3,0,11,0.87
2013-8-29,82.8,72.2,67.3,72.0,69.0,67.0,99,90,65,29.99,29.86,6,0,7,0.87
2013-8-30,83.7,73.5,67.2,73.0,69.0,65.0,96,86,67,29.99,29.82,10,1,11,0.00
2013-8-31,87.0,76.2,69.4,76.0,72.2,68.0,97,87,69,29.83,29.75,4,1,9,0.00
2013-9-1,84.4,76.6,70.8,77.0,72.8,70.0,97,88,71,29.80,29.74,5,0,13,0.11
2013-9-2,81.6,72.3,68.7,75.0,70.7,68.0,99,95,76,29.76,29.67,4,0,7,0.29
2013-9-3,84.4,69.5,60.0,68.0,63.2,58.0,99,83,47,29.88,29.69,6,1,16,0.31
2013-9-4,82.9,67.1,56.8,64.0,59.8,56.0,98,80,46,29.99,29.88,6,1,11,0.00
2013-9-5,77.0,64.5,54.5,63.0,55.0,47.0,96,74,39,30.14,29.92,8,1,13,0.01
2013-9-6,73.1,56.8,44.2,52.0,45.7,41.0,97,71,33,30.25,30.12,5,1,10,0.01
2013-9-7,79.5,59.8,43.9,60.0,51.5,43.0,98,78,37,30.12,29.89,5,1,7,0.01
2013-9-8,80.8,66.4,57.1,66.0,56.8,46.0,96,73,42,30.07,29.81,15,2,20,0.00
2013-9-9,76.2,60.4,43.9,62.0,52.8,43.0,97,78,51,30.21,30.07,6,1,11,0.00
2013-9-10,86.5,74.6,65.5,76.0,69.6,61.0,95,85,68,30.13,30.01,6,1,13,0.00
2013-9-11,94.9,80.0,70.4,80.0,74.1,70.0,98,84,62,30.09,29.93,6,1,12,0.00
2013-9-12,83.8,73.1,66.5,77.0,71.2,66.0,98,94,77,29.95,29.66,6,0,17,1.13
2013-9-13,66.7,59.6,54.9,55.0,52.2,49.0,83,77,66,29.86,29.73,4,0,10,0.00
2013-9-14,60.8,53.6,43.5,49.0,46.7,42.0,95,78,65,30.13,29.86,10,2,16,0.00
2013-9-15,71.3,53.9,39.5,56.0,47.9,39.0,98,83,47,30.22,30.06,6,1,10,0.00
2013-9-16,70.3,59.2,52.8,60.0,53.7,47.0,98,83,56,30.24,30.02,7,1,10,0.05
2013-9-17,63.8,51.8,40.3,47.0,42.3,39.0,96,73,41,30.42,30.25,11,1,13,0.05
2013-9-18,71.4,52.3,37.2,51.0,44.4,36.0,98,79,39,30.34,30.17,5,1,9,0.01
2013-9-19,76.0,56.1,40.1,56.0,48.7,39.0,98,80,44,30.18,30.05,6,1,9,0.02
2013-9-20,82.0,61.3,45.8,63.0,54.8,45.0,99,82,46,30.07,29.94,6,1,11,0.00
2013-9-21,77.5,64.4,52.7,64.0,57.9,52.0,99,82,50,29.97,29.64,9,2,15,0.60
2013-9-22,65.0,58.9,52.7,59.0,50.6,42.0,98,76,50,29.92,29.65,8,2,15,0.01
2013-9-23,64.8,53.9,46.3,47.0,43.0,41.0,84,68,51,30.04,29.92,8,2,18,0.01
2013-9-24,73.0,54.9,39.3,51.0,44.6,37.0,96,72,36,30.05,29.88,8,1,15,0.00
2013-9-25,73.7,55.1,40.7,55.0,47.1,39.0,97,78,41,29.96,29.86,7,1,9,0.00
2013-9-26,71.9,56.0,43.6,59.0,51.4,43.0,99,86,58,30.09,29.93,3,0,8,0.01
2013-9-27,72.2,56.9,45.2,56.0,50.9,44.0,98,82,48,30.25,30.09,5,1,9,0.01
2013-9-28,73.6,59.6,50.2,55.0,52.2,49.0,97,80,44,30.31,30.22,5,1,13,0.01
2013-9-29,72.8,56.9,44.1,57.0,51.1,43.0,99,83,52,30.22,30.05,3,0,6,0.01
2013-9-30,75.0,56.9,44.4,57.0,50.4,44.0,98,82,45,30.08,29.95,5,1,8,0.01
2013-10-1,79.3,59.9,47.5,66.0,54.9,47.0,99,85,52,30.01,29.89,6,1,12,0.02
2013-10-2,84.2,65.2,50.2,65.0,58.3,49.0,99,81,49,30.00,29.90,5,1,13,0.00
2013-10-3,78.9,63.9,51.4,64.0,58.3,51.0,99,84,48,30.11,30.00,4,1,9,0.01
2013-10-4,84.4,68.8,56.8,69.0,62.9,56.0,99,83,56,30.05,29.94,7,1,11,0.00
2013-10-5,83.7,70.0,61.7,69.0,64.7,61.0,98,85,58,30.07,29.96,5,1,10,0.03
2013-10-6,68.0,66.2,64.0,66.0,64.6,63.0,98,94,89,30.04,29.95,10,2,12,0.16
2013-10-7,74.0,64.2,50.7,70.0,62.5,49.0,97,94,87,29.97,29.69,11,2,23,0.54
2013-10-8,66.3,53.7,44.9,50.0,46.8,44.0,97,80,46,30.31,29.98,8,1,15,0.55
2013-10-9,59.7,49.9,42.1,49.0,44.9,41.0,97,85,55,30.39,30.28,7,1,13,0.01
2013-10-10,57.3,52.6,47.6,51.0,47.7,45.0,94,83,76,30.27,30.06,8,1,11,0.04
2013-10-11,64.1,59.7,55.0,59.0,53.9,48.0,90,81,76,30.07,30.00,7,2,12,0.01
2013-10-12,72.8,62.7,54.3,56.0,48.7,35.0,88,63,26,30.23,30.05,12,3,19,0.01
2013-10-13,65.2,57.9,49.1,53.0,50.6,48.0,94,77,61,30.35,30.23,10,2,15,0.00
2013-10-14,70.7,53.9,43.4,53.0,47.4,43.0,98,81,43,30.35,30.21,4,1,7,0.01
2013-10-15,73.1,56.1,43.4,56.0,47.0,37.0,98,75,42,30.24,30.09,6,1,10,0.00
2013-10-16,63.5,55.5,46.2,57.0,51.5,41.0,93,86,71,30.09,29.89,3,0,4,0.00
2013-10-17,75.5,65.2,59.3,63.0,59.8,57.0,95,84,55,29.89,29.64,9,2,23,0.01
2013-10-18,65.2,56.7,44.7,62.0,46.5,41.0,90,70,49,29.97,29.65,10,3,18,0.01
2013-10-19,63.4,50.1,37.5,51.0,43.4,36.0,97,80,49,29.97,29.74,5,1,13,0.08
2013-10-20,62.1,49.7,40.0,50.0,40.4,36.0,96,73,39,30.05,29.75,11,2,16,0.09
2013-10-21,66.7,50.3,33.9,45.0,38.8,33.0,97,69,38,30.14,29.95,10,2,16,0.00
2013-10-22,60.2,51.2,40.7,50.0,43.4,34.0,96,76,47,29.95,29.74,8,2,13,0.00
2013-10-23,53.9,41.1,32.7,40.0,34.9,31.0,96,80,46,29.81,29.63,5,1,9,0.01
2013-10-24,52.2,40.2,31.2,35.0,30.9,27.0,95,72,41,30.01,29.78,17,2,20,0.01
2013-10-25,51.4,40.7,31.4,36.0,31.6,29.0,90,72,47,30.22,30.01,14,2,18,0.01
2013-10-26,53.7,42.8,32.4,34.0,31.3,29.0,93,67,41,30.23,29.88,14,3,22,0.00
2013-10-27,57.5,46.3,38.5,36.0,32.9,31.0,76,61,41,30.12,29.85,10,2,17,0.00
2013-10-28,61.6,43.9,29.3,38.0,33.3,28.0,95,70,39,30.31,30.12,12,2,16,0.00
2013-10-29,56.8,44.5,35.4,36.0,33.0,30.0,85,66,42,30.41,30.31,5,1,10,0.00
2013-10-30,58.4,44.8,33.3,50.0,40.1,30.0,95,84,72,30.32,30.16,4,0,5,0.00
2013-10-31,63.9,56.0,46.5,59.0,53.8,45.0,96,92,81,30.21,29.76,10,1,17,0.06
2013-11-1,69.2,62.5,48.7,64.0,55.7,46.0,95,80,55,29.75,29.49,22,6,38,0.34
2013-11-2,64.6,52.0,45.3,49.0,44.3,40.0,95,77,53,29.78,29.61,8,1,16,0.34
2013-11-3,48.1,42.0,31.4,42.0,30.1,19.0,85,64,42,30.46,29.78,10,3,18,0.00
2013-11-4,44.6,33.7,23.9,23.0,20.1,17.0,84,60,36,30.65,30.46,15,1,16,0.00
2013-11-5,53.4,41.4,27.8,42.0,33.2,23.0,85,74,60,30.65,30.46,7,1,8,0.00
2013-11-6,60.4,52.9,45.5,49.0,45.8,42.0,87,77,64,30.48,30.04,9,2,11,0.00
2013-11-7,58.2,50.3,36.3,55.0,45.9,32.0,95,85,69,30.04,29.76,14,2,15,0.12
2013-11-8,47.2,39.2,31.6,35.0,29.8,26.0,86,70,49,30.23,29.94,11,2,20,0.01
2013-11-9,49.1,39.6,30.4,32.0,28.7,26.0,85,67,45,30.29,29.97,14,2,14,0.01
2013-11-10,55.6,45.1,37.2,37.0,32.7,30.0,81,63,50,30.06,29.84,19,5,25,0.00
2013-11-11,52.3,44.5,34.1,35.0,30.3,25.0,71,58,49,30.21,29.94,11,4,20,0.00
2013-11-12,47.1,33.7,24.2,35.0,22.8,16.0,88,65,52,30.31,29.92,10,2,22,0.00
2013-11-13,38.1,29.1,23.3,21.0,16.5,13.0,72,61,41,30.40,30.27,12,2,18,0.01
2013-11-14,50.2,38.0,27.7,23.0,19.2,15.0,73,50,30,30.27,30.17,11,3,20,0.01
2013-11-15,55.3,41.1,29.9,29.0,22.9,17.0,78,51,26,30.25,30.14,9,2,12,0.00
2013-11-16,59.8,47.0,36.4,46.0,39.9,27.0,95,78,54,30.32,30.23,7,1,9,0.03
2013-11-17,62.7,55.0,47.9,57.0,52.7,46.0,98,92,81,30.24,29.72,9,1,12,0.01
2013-11-18,62.2,55.5,46.4,60.0,41.3,27.0,95,63,35,29.79,29.57,18,6,36,0.37
2013-11-19,46.2,40.0,32.0,30.0,24.7,21.0,65,55,48,30.36,29.80,14,5,22,0.00
2013-11-20,43.3,33.7,25.3,21.0,16.6,9.0,70,52,27,30.61,30.36,8,2,14,0.00
2013-11-21,48.8,35.8,20.8,38.0,26.6,15.0,82,70,57,30.61,30.38,9,0,11,0.00
2013-11-22,52.7,48.2,43.8,48.0,44.7,38.0,95,87,77,30.37,29.92,8,2,13,0.02
2013-11-23,50.2,38.1,25.7,45.0,24.7,6.0,83,59,41,30.09,29.91,20,5,23,0.02
2013-11-24,26.2,22.4,19.4,8.0,4.7,2.0,56,47,39,30.40,30.05,23,6,32,0.00
2013-11-25,32.8,25.1,14.3,16.0,12.3,6.0,80,60,48,30.48,30.31,11,3,13,0.00
2013-11-26,40.0,32.3,30.3,39.0,24.1,14.0,97,74,50,30.31,29.73,5,1,11,0.73
2013-11-27,47.8,38.1,30.8,47.0,34.9,20.0,97,88,63,29.77,29.41,12,3,24,0.23
2013-11-28,33.5,28.8,25.7,21.0,15.0,12.0,75,57,41,30.46,29.78,18,4,25,0.23
2013-11-29,34.8,28.7,22.0,23.0,19.3,14.0,81,69,53,30.74,30.45,6,1,13,0.00
2013-11-30,34.1,26.0,15.3,27.0,18.7,12.0,86,75,53,30.74,30.38,5,1,10,0.00
2013-12-1,45.1,33.9,23.9,32.0,27.4,22.0,94,78,56,30.37,30.00,5,1,8,0.00
2013-12-2,45.0,35.7,29.7,32.0,29.9,27.0,91,80,59,30.00,29.88,3,0,5,0.00
2013-12-3,51.4,37.6,28.6,37.0,31.9,27.0,93,81,55,30.00,29.88,6,1,9,0.00
2013-12-4,50.2,39.9,29.3,43.0,35.4,28.0,96,85,68,30.11,30.00,3,0,8,0.00
2013-12-5,53.5,49.6,44.6,53.0,48.6,43.0,98,96,85,30.09,29.91,2,0,7,0.01
2013-12-6,57.1,43.5,34.6,57.0,41.7,33.0,99,93,81,30.15,29.85,7,1,22,0.69
2013-12-7,36.3,32.4,26.8,33.0,26.5,19.0,95,79,66,30.53,30.08,12,2,18,0.71
2013-12-8,28.9,25.4,20.7,26.0,20.0,16.0,94,80,67,30.59,30.36,3,0,8,0.00
2013-12-9,33.5,31.7,27.5,33.0,30.8,26.0,97,96,94,30.35,29.99,5,1,11,0.21
2013-12-10,31.2,28.1,19.8,31.0,26.8,18.0,97,95,86,30.12,29.90,4,1,8,0.01
2013-12-11,30.8,23.7,18.3,19.0,16.8,15.0,87,76,56,30.32,30.13,13,3,18,0.01
2013-12-12,26.7,21.0,16.8,17.0,10.1,6.0,85,64,45,30.37,30.16,12,3,15,0.01
2013-12-13,34.5,24.2,14.2,21.0,14.2,5.0,81,66,51,30.32,30.13,15,3,20,0.00
2013-12-14,26.9,22.3,18.5,21.0,18.9,17.0,93,86,75,30.45,29.81,7,2,13,0.00
2013-12-15,36.9,28.5,17.9,34.0,24.5,16.0,95,85,68,29.83,29.58,10,3,19,0.12
2013-12-16,29.1,22.7,12.6,22.0,11.1,8.0,83,62,46,30.21,29.83,17,4,26,0.12
2013-12-17,19.9,16.5,11.2,18.0,13.5,8.0,91,88,82,30.21,29.95,4,0,6,0.00
2013-12-18,35.6,22.3,10.9,26.0,16.7,8.0,94,80,59,30.18,29.95,14,2,20,0.11
2013-12-19,38.1,29.2,19.5,28.0,22.4,16.0,91,76,62,30.17,30.04,7,1,11,0.09
2013-12-20,46.6,37.4,28.0,33.0,29.3,25.0,89,74,59,30.09,29.97,4,1,7,0.19
2013-12-21,53.1,46.0,39.1,50.0,39.7,32.0,92,79,69,29.99,29.88,5,1,8,0.20
2013-12-22,64.9,59.4,47.1,61.0,56.7,45.0,98,90,80,29.93,29.77,17,3,26,0.05
2013-12-23,56.4,50.4,36.6,56.0,48.3,28.0,98,93,71,30.15,29.89,9,2,19,0.49
2013-12-24,36.4,31.1,21.4,27.0,21.5,12.0,91,68,58,30.37,30.11,9,3,18,0.49
2013-12-25,25.0,20.6,14.3,15.0,10.1,6.0,73,64,52,30.53,30.37,7,2,20,0.00
2013-12-26,31.6,25.4,21.1,27.0,21.2,15.0,91,84,70,30.40,30.18,7,1,11,0.01
2013-12-27,37.9,28.2,21.0,25.0,22.0,18.0,90,78,59,30.36,30.27,11,2,14,0.01
2013-12-28,49.8,35.5,24.9,31.0,26.3,21.0,89,71,47,30.27,30.07,15,2,21,0.00
2013-12-29,41.1,37.6,34.1,38.0,33.4,28.0,96,85,67,30.06,29.48,7,1,13,0.86
2013-12-30,41.3,31.9,19.9,36.0,25.5,11.0,96,78,60,30.18,29.72,11,2,18,0.86
2013-12-31,29.9,21.9,14.2,25.0,13.6,9.0,87,71,54,30.28,30.06,14,3,26,0.00
2014-1-1,30.8,24.9,18.2,21.0,17.0,10.0,84,72,65,30.40,30.23,7,1,9,0.00
2014-1-2,27.1,20.2,11.7,21.0,16.1,9.0,90,84,77,30.22,29.71,12,2,12,0.00